Time;durP1;ratioP1;P1;durP2;ratioP2;P2;SDS_P1;SDS_P2;PMS_P1;PMS_P2;Temp;Humidity;BMP_temperature;BMP_pressure;BME280_temperature;BME280_humidity;BME280_pressure;Samples;Min_cycle;Max_cycle;Signal;HPM_P1;HPM_P2
2022/09/25 00:01:59;;;;;;;5.65;1.83;;;17.90;84.30;;;;;;6179327;23;20080;-66
2022/09/25 00:04:28;;;;;;;4.78;2.42;;;17.90;84.30;;;;;;6180835;23;20043;-65
2022/09/25 00:06:55;;;;;;;6.63;3.03;;;17.90;84.30;;;;;;6179639;23;20024;-66
2022/09/25 00:09:22;;;;;;;11.88;3.40;;;17.90;84.20;;;;;;6180578;23;20007;-65
2022/09/25 00:11:49;;;;;;;9.38;2.65;;;17.90;84.20;;;;;;6180659;23;20011;-65
2022/09/25 00:14:17;;;;;;;10.00;2.72;;;17.80;84.20;;;;;;6180931;23;20143;-67
2022/09/25 00:16:47;;;;;;;8.23;3.30;;;17.80;84.00;;;;;;6180672;23;20421;-66
2022/09/25 00:22:05;;;;;;;9.98;3.63;;;17.80;83.80;;;;;;6180405;23;20012;-71
2022/09/25 00:24:33;;;;;;;8.57;4.10;;;17.80;83.80;;;;;;6179913;23;20001;-70
2022/09/25 00:27:00;;;;;;;21.00;9.68;;;17.80;83.80;;;;;;6180248;23;20001;-67
2022/09/25 00:29:26;;;;;;;15.70;8.63;;;17.70;83.80;;;;;;6180615;23;20005;-66
2022/09/25 00:31:55;;;;;;;16.02;8.20;;;17.70;83.70;;;;;;6179956;23;20003;-66
2022/09/25 00:34:22;;;;;;;17.05;8.57;;;17.70;83.70;;;;;;6181060;23;19997;-67
2022/09/25 00:36:48;;;;;;;10.38;4.68;;;17.70;83.60;;;;;;6178991;23;20007;-64
2022/09/25 00:39:15;;;;;;;14.00;3.45;;;17.70;83.50;;;;;;6180488;23;20425;-65
2022/09/25 00:41:41;;;;;;;8.60;2.58;;;17.70;83.50;;;;;;6181441;23;19994;-69
2022/09/25 00:44:46;;;;;;;11.02;3.42;;;17.70;83.40;;;;;;6182013;23;20055;-67
2022/09/25 00:47:17;;;;;;;6.30;2.20;;;17.60;83.40;;;;;;6137026;23;20001;-72
2022/09/25 00:49:44;;;;;;;11.68;2.53;;;17.60;83.30;;;;;;6180014;23;20009;-66
2022/09/25 00:52:12;;;;;;;9.43;1.98;;;17.60;83.30;;;;;;6181516;23;19997;-70
2022/09/25 00:54:57;;;;;;;11.18;2.85;;;17.60;83.40;;;;;;6181023;23;20072;-71
2022/09/25 00:57:26;;;;;;;11.55;2.70;;;17.60;83.30;;;;;;6181531;23;20024;-65
2022/09/25 00:59:58;;;;;;;7.65;2.67;;;17.60;83.10;;;;;;6182382;23;20017;-65
2022/09/25 01:02:35;;;;;;;11.48;3.78;;;17.60;83.10;;;;;;6180167;23;20012;-65
2022/09/25 01:05:23;;;;;;;21.13;4.30;;;17.60;83.30;;;;;;6182234;23;20047;-66
2022/09/25 01:07:51;;;;;;;12.00;2.67;;;17.50;83.60;;;;;;6154712;23;20007;-67
2022/09/25 01:10:20;;;;;;;12.30;2.83;;;17.50;83.60;;;;;;6181268;23;20039;-65
2022/09/25 01:12:48;;;;;;;11.13;2.50;;;17.50;83.10;;;;;;6180561;23;20332;-69
2022/09/25 01:15:18;;;;;;;6.80;1.95;;;17.50;83.60;;;;;;6180992;23;20004;-67
2022/09/25 01:18:19;;;;;;;5.22;2.03;;;17.50;82.80;;;;;;6182363;23;20001;-68
2022/09/25 01:21:21;;;;;;;7.72;2.50;;;17.40;82.70;;;;;;6181434;23;20006;-69
2022/09/25 01:24:06;;;;;;;4.13;1.98;;;17.40;82.60;;;;;;6180903;23;20429;-66
2022/09/25 01:26:51;;;;;;;;;;;17.30;82.30;;;;;;6181902;23;20432;-65
2022/09/25 01:29:28;;;;;;;6.32;2.35;;;17.30;82.10;;;;;;6181047;23;19900;-69
2022/09/25 01:32:10;;;;;;;5.05;2.50;;;17.30;81.90;;;;;;6181391;23;20176;-68
2022/09/25 01:34:58;;;;;;;6.88;2.47;;;17.30;81.90;;;;;;6182202;23;20028;-66
2022/09/25 01:37:35;;;;;;;4.78;2.00;;;17.30;81.80;;;;;;6180334;23;20013;-68
2022/09/25 01:40:05;;;;;;;4.70;3.00;;;17.30;81.70;;;;;;6182153;23;20016;-67
2022/09/25 01:42:42;;;;;;;7.20;1.85;;;17.30;81.70;;;;;;6180922;23;20451;-65
2022/09/25 01:45:17;;;;;;;9.10;3.90;;;17.30;81.50;;;;;;6181421;23;20004;-66
2022/09/25 01:47:47;;;;;;;12.32;3.58;;;17.30;81.40;;;;;;6181246;23;20012;-66
2022/09/25 01:50:21;;;;;;;10.05;2.95;;;17.20;81.30;;;;;;6181053;23;20048;-67
2022/09/25 01:52:54;;;;;;;10.23;2.28;;;17.20;81.60;;;;;;6181639;23;20076;-70
2022/09/25 01:55:37;;;;;;;4.65;1.85;;;17.20;81.90;;;;;;6180425;23;20039;-65
2022/09/25 01:58:30;;;;;;;3.65;1.60;;;17.20;81.90;;;;;;6180878;23;20388;-66
2022/09/25 02:01:04;;;;;;;9.20;2.05;;;17.20;81.80;;;;;;6182090;23;20007;-65
2022/09/25 02:03:50;;;;;;;3.40;2.10;;;17.20;81.70;;;;;;6180275;23;20005;-69
2022/09/25 02:06:19;;;;;;;6.38;1.42;;;17.20;81.50;;;;;;6181693;23;20425;-65
2022/09/25 02:08:52;;;;;;;8.93;2.30;;;17.10;81.30;;;;;;6180603;23;20005;-65
2022/09/25 02:11:20;;;;;;;4.72;1.45;;;17.10;81.30;;;;;;6180156;23;20005;-67
2022/09/25 02:14:01;;;;;;;4.13;1.98;;;17.10;81.20;;;;;;6181716;23;20060;-65
2022/09/25 02:16:37;;;;;;;3.92;1.80;;;17.10;81.20;;;;;;6154597;23;20456;-65
2022/09/25 02:22:07;;;;;;;;;;;17.10;80.90;;;;;;6181273;23;20055;-66
2022/09/25 02:24:55;;;;;;;6.03;1.92;;;17.10;81.00;;;;;;6179978;23;19900;-66
2022/09/25 02:27:23;;;;;;;8.65;2.42;;;17.10;80.80;;;;;;6181892;23;20013;-65
2022/09/25 02:29:51;;;;;;;7.10;2.55;;;17.10;81.00;;;;;;6179428;23;20015;-68
2022/09/25 02:32:29;;;;;;;12.23;2.70;;;17.00;80.80;;;;;;6181223;23;20001;-66
2022/09/25 02:34:57;;;;;;;7.07;1.80;;;17.00;80.60;;;;;;6180528;23;20368;-69
2022/09/25 02:37:23;;;;;;;3.55;1.92;;;17.00;80.30;;;;;;6180124;23;20029;-65
2022/09/25 02:39:54;;;;;;;14.20;4.30;;;17.00;80.10;;;;;;6182078;23;20021;-68
2022/09/25 02:42:43;;;;;;;8.98;1.83;;;17.00;80.00;;;;;;6179966;23;20005;-68
2022/09/25 02:45:37;;;;;;;6.70;2.58;;;17.00;79.90;;;;;;6181644;23;20012;-72
2022/09/25 02:48:34;;;;;;;7.90;2.40;;;16.90;79.70;;;;;;6181457;23;19998;-65
2022/09/25 02:51:34;;;;;;;3.80;1.58;;;16.90;79.70;;;;;;6180136;23;20004;-66
2022/09/25 02:54:20;;;;;;;6.50;1.90;;;16.90;79.60;;;;;;6171659;23;20036;-66
2022/09/25 02:57:05;;;;;;;12.18;3.17;;;16.90;79.50;;;;;;6181424;23;20013;-65
2022/09/25 02:59:41;;;;;;;5.82;1.80;;;16.80;79.80;;;;;;6179919;23;20020;-68
2022/09/25 03:02:10;;;;;;;6.13;2.47;;;16.90;80.50;;;;;;6181608;23;20037;-71
2022/09/25 03:04:38;;;;;;;10.95;3.28;;;16.80;80.20;;;;;;6180647;23;20347;-70
2022/09/25 03:07:05;;;;;;;5.63;1.77;;;16.80;79.70;;;;;;6180624;23;20001;-68
2022/09/25 03:09:35;;;;;;;6.68;1.70;;;16.80;79.40;;;;;;6181092;23;20059;-64
2022/09/25 03:12:04;;;;;;;5.65;2.17;;;16.70;78.80;;;;;;6179864;23;20072;-66
2022/09/25 03:14:31;;;;;;;7.43;1.80;;;16.80;78.40;;;;;;6181653;23;20084;-66
2022/09/25 03:17:03;;;;;;;3.50;2.20;;;16.70;77.90;;;;;;6179535;23;20088;-67
2022/09/25 03:19:31;;;;;;;4.70;1.52;;;16.70;77.70;;;;;;6180727;23;20369;-73
2022/09/25 03:21:58;;;;;;;8.07;2.60;;;16.70;77.50;;;;;;6180341;23;19993;-66
2022/09/25 03:24:24;;;;;;;2.83;1.90;;;16.60;77.20;;;;;;6180958;23;20012;-67
2022/09/25 03:26:52;;;;;;;5.22;2.17;;;16.60;77.00;;;;;;6180498;23;20052;-65
2022/09/25 03:29:20;;;;;;;3.28;1.52;;;16.60;77.00;;;;;;6179730;23;20000;-67
2022/09/25 03:31:47;;;;;;;11.63;2.08;;;16.60;76.90;;;;;;6180898;23;20011;-65
2022/09/25 03:34:16;;;;;;;7.45;3.22;;;16.50;77.10;;;;;;6179681;23;20001;-65
2022/09/25 03:36:46;;;;;;;10.55;5.70;;;16.50;78.20;;;;;;6180374;23;20032;-65
2022/09/25 03:39:14;;;;;;;10.93;7.43;;;16.50;78.70;;;;;;6180100;23;20012;-67
2022/09/25 03:41:42;;;;;;;12.00;5.65;;;16.50;78.30;;;;;;6180645;23;20045;-67
2022/09/25 03:44:08;;;;;;;6.95;2.95;;;16.50;77.70;;;;;;6180516;23;20108;-64
2022/09/25 03:46:35;;;;;;;7.45;2.60;;;16.50;77.10;;;;;;6179650;23;19997;-71
2022/09/25 03:49:02;;;;;;;3.42;2.78;;;16.50;76.70;;;;;;6180128;23;20007;-65
2022/09/25 03:51:30;;;;;;;3.85;1.80;;;16.50;76.50;;;;;;6178802;23;20008;-68
2022/09/25 03:53:57;;;;;;;5.30;2.58;;;16.40;76.20;;;;;;6180781;23;20436;-64
2022/09/25 03:56:26;;;;;;;7.10;2.55;;;16.40;76.30;;;;;;6179048;23;20063;-65
2022/09/25 03:58:53;;;;;;;4.03;2.15;;;16.40;76.30;;;;;;6181048;23;20475;-67
2022/09/25 04:01:20;;;;;;;3.50;1.63;;;16.30;76.10;;;;;;6180543;23;20005;-64
2022/09/25 04:03:47;;;;;;;5.32;2.08;;;16.30;76.00;;;;;;6180603;23;19989;-66
2022/09/25 06:19:56;;;;;;;11.07;3.47;;;15.70;83.50;;;;;;5078977;27;20392;-76
2022/09/25 06:22:23;;;;;;;7.50;5.07;;;16.10;86.00;;;;;;5066728;28;20023;-74
2022/09/25 06:24:49;;;;;;;8.13;3.53;;;16.10;85.90;;;;;;5060170;28;20059;-77
2022/09/25 06:27:16;;;;;;;11.80;3.60;;;16.20;86.00;;;;;;5062771;28;20025;-78
2022/09/25 06:29:42;;;;;;;22.70;5.38;;;16.20;85.70;;;;;;5063156;28;20383;-76
2022/09/25 06:32:09;;;;;;;17.42;9.95;;;16.30;85.50;;;;;;5064121;28;20550;-78
2022/09/25 06:34:35;;;;;;;346.85;85.47;;;16.30;85.00;;;;;;5062959;28;20028;-72
2022/09/25 06:37:02;;;;;;;220.05;46.15;;;16.40;84.70;;;;;;5063693;28;20024;-75
2022/09/25 06:39:31;;;;;;;94.68;23.30;;;16.60;84.80;;;;;;5063335;28;20028;-70
2022/09/25 06:41:58;;;;;;;21.58;6.95;;;16.80;84.10;;;;;;5064442;28;20494;-76
2022/09/25 06:44:25;;;;;;;28.10;6.18;;;16.80;83.10;;;;;;5064988;28;20483;-78
2022/09/25 06:46:53;;;;;;;37.20;7.57;;;16.90;82.70;;;;;;5064014;28;20471;-77
2022/09/25 06:49:20;;;;;;;26.48;8.18;;;16.90;82.80;;;;;;5059496;28;20491;-75
2022/09/25 06:51:47;;;;;;;35.83;18.30;;;16.80;83.10;;;;;;5060847;28;20017;-76
2022/09/25 06:54:13;;;;;;;21.48;12.10;;;16.90;83.30;;;;;;5057751;28;20480;-74
2022/09/25 06:56:40;;;;;;;22.40;9.52;;;16.80;83.40;;;;;;5062437;28;20116;-76
2022/09/25 06:59:08;;;;;;;12.93;6.97;;;16.90;83.50;;;;;;5061967;28;20073;-76
2022/09/25 07:01:34;;;;;;;10.98;6.15;;;16.90;83.60;;;;;;5063371;28;20468;-76
2022/09/25 07:04:02;;;;;;;13.90;6.05;;;16.90;83.60;;;;;;5059924;28;20032;-76
2022/09/25 07:06:30;;;;;;;12.77;4.78;;;16.90;83.40;;;;;;5065858;28;20036;-76
2022/09/25 07:08:56;;;;;;;10.00;4.32;;;17.00;83.30;;;;;;5062525;28;20048;-75
2022/09/25 07:11:26;;;;;;;12.80;3.58;;;17.00;83.00;;;;;;5069325;28;20024;-77
2022/09/25 07:13:56;;;;;;;8.07;3.35;;;17.00;82.50;;;;;;5065135;28;20032;-77
2022/09/25 07:16:28;;;;;;;7.55;3.55;;;17.00;81.90;;;;;;5061565;28;20021;-79
2022/09/25 07:18:57;;;;;;;8.15;2.90;;;17.10;81.50;;;;;;5055106;28;20045;-77
2022/09/25 07:21:26;;;;;;;8.80;3.55;;;17.10;81.10;;;;;;5050853;28;20070;-78
2022/09/25 07:23:53;;;;;;;6.55;3.35;;;17.10;80.80;;;;;;5046667;28;20132;-78
2022/09/25 07:26:22;;;;;;;9.88;3.63;;;17.20;80.60;;;;;;5053412;28;20021;-78
2022/09/25 07:28:57;;;;;;;6.72;4.30;;;17.20;80.30;;;;;;5050559;28;20451;-76
2022/09/25 07:31:27;;;;;;;;;;;17.20;80.00;;;;;;5050982;28;20020;-75
2022/09/25 07:33:55;;;;;;;14.57;6.85;;;17.30;79.80;;;;;;5048340;28;19904;-80
2022/09/25 07:36:22;;;;;;;13.32;5.90;;;17.30;79.70;;;;;;5047972;28;20539;-76
2022/09/25 07:38:49;;;;;;;9.38;4.90;;;17.40;79.80;;;;;;5045447;28;20021;-77
2022/09/25 07:41:17;;;;;;;15.48;5.45;;;17.40;79.80;;;;;;5045181;28;20013;-79
2022/09/25 07:43:44;;;;;;;8.60;3.90;;;17.40;80.00;;;;;;5050282;28;20070;-78
2022/09/25 07:46:11;;;;;;;10.35;4.55;;;17.50;80.10;;;;;;5048044;28;20020;-77
2022/09/25 07:48:38;;;;;;;12.82;5.05;;;17.60;79.90;;;;;;5055191;28;20112;-76
2022/09/25 07:51:08;;;;;;;10.32;5.07;;;17.60;79.80;;;;;;5050098;28;20092;-75
2022/09/25 07:53:34;;;;;;;14.57;4.65;;;17.60;79.60;;;;;;5050912;28;20031;-76
2022/09/25 07:56:01;;;;;;;12.20;4.55;;;17.70;79.60;;;;;;5049674;28;20112;-81
2022/09/25 07:58:28;;;;;;;10.40;4.03;;;17.70;79.30;;;;;;5052487;28;20018;-79
2022/09/25 08:00:59;;;;;;;12.45;5.35;;;17.70;79.20;;;;;;5049771;28;20033;-82
2022/09/25 08:03:26;;;;;;;9.57;4.28;;;17.80;79.30;;;;;;5048036;28;20094;-79
2022/09/25 08:06:03;;;;;;;9.60;4.05;;;17.80;79.20;;;;;;5051769;28;20044;-79
2022/09/25 08:08:32;;;;;;;11.35;4.55;;;17.90;79.10;;;;;;5045377;28;20033;-78
2022/09/25 08:11:05;;;;;;;15.77;4.13;;;17.90;78.90;;;;;;5048513;28;20017;-80
2022/09/25 08:13:33;;;;;;;12.07;5.15;;;18.00;79.00;;;;;;5049206;28;20127;-72
2022/09/25 08:16:02;;;;;;;14.52;4.47;;;18.00;78.80;;;;;;5051055;28;20028;-72
2022/09/25 08:18:29;;;;;;;14.20;4.38;;;18.10;78.70;;;;;;5048873;28;20040;-80
2022/09/25 08:21:04;;;;;;;17.67;4.00;;;18.10;78.70;;;;;;5046222;28;20048;-81
2022/09/25 08:23:31;;;;;;;19.48;6.75;;;18.10;78.50;;;;;;5045755;28;20917;-77
2022/09/25 08:25:58;;;;;;;10.02;4.00;;;18.20;78.40;;;;;;5051695;28;20047;-76
2022/09/25 08:28:24;;;;;;;10.43;3.78;;;18.20;78.30;;;;;;5048596;28;20037;-77
2022/09/25 08:30:51;;;;;;;11.32;5.22;;;18.30;78.30;;;;;;5047899;28;20029;-76
2022/09/25 08:33:17;;;;;;;9.27;4.25;;;18.30;78.20;;;;;;5050448;28;20036;-80
2022/09/25 08:35:53;;;;;;;14.80;5.38;;;18.40;78.10;;;;;;5049085;28;20013;-81
2022/09/25 08:38:19;;;;;;;19.05;8.75;;;18.40;77.90;;;;;;5048816;28;20111;-82
2022/09/25 08:40:55;;;;;;;15.93;6.07;;;18.40;77.80;;;;;;5044380;28;20013;-77
2022/09/25 08:43:24;;;;;;;15.48;4.72;;;18.50;77.90;;;;;;5043640;28;20139;-77
2022/09/25 08:49:01;;;;;;;13.20;3.28;;;18.60;78.30;;;;;;5045105;28;20546;-76
2022/09/25 08:51:37;;;;;;;14.38;6.13;;;18.70;78.00;;;;;;5048480;28;20121;-76
2022/09/25 08:54:05;;;;;;;17.77;4.70;;;18.70;77.40;;;;;;5053171;28;20025;-75
2022/09/25 08:56:34;;;;;;;16.40;5.28;;;18.80;77.30;;;;;;5054169;28;20016;-76
2022/09/25 08:59:34;;;;;;;6.88;2.85;;;18.90;77.10;;;;;;5051602;28;20039;-78
2022/09/25 09:02:15;;;;;;;9.07;2.42;;;18.90;76.50;;;;;;5047129;28;20017;-74
2022/09/25 09:04:45;;;;;;;8.45;1.92;;;19.00;75.90;;;;;;5048563;28;20027;-77
2022/09/25 09:07:16;;;;;;;5.32;2.53;;;19.00;75.70;;;;;;5054505;28;20029;-77
2022/09/25 09:10:08;;;;;;;10.27;2.17;;;19.00;75.40;;;;;;5054149;28;20081;-80
2022/09/25 09:12:49;;;;;;;7.38;3.30;;;19.10;75.40;;;;;;5048522;28;20111;-77
2022/09/25 09:15:34;;;;;;;5.22;1.45;;;19.10;74.90;;;;;;5049017;28;20036;-76
2022/09/25 09:18:04;;;;;;;;;;;19.20;74.80;;;;;;5051266;28;20139;-78
2022/09/25 09:20:42;;;;;;;7.43;1.50;;;19.20;74.70;;;;;;5049785;28;19908;-75
2022/09/25 09:23:18;;;;;;;5.72;1.92;;;19.20;74.90;;;;;;5043928;28;20029;-77
2022/09/25 09:26:19;;;;;;;4.20;2.00;;;19.30;74.80;;;;;;5045748;28;20063;-81
2022/09/25 09:28:48;;;;;;;11.32;2.58;;;19.30;74.90;;;;;;5050390;28;20040;-75
2022/09/25 09:31:50;;;;;;;14.02;4.40;;;19.40;74.90;;;;;;5047637;28;20087;-77
2022/09/25 09:34:50;;;;;;;26.17;5.82;;;19.40;75.20;;;;;;5046098;28;20128;-73
2022/09/25 09:37:30;;;;;;;5.22;1.80;;;19.50;75.10;;;;;;5048628;28;20035;-72
2022/09/25 09:40:22;;;;;;;4.55;1.92;;;19.60;74.60;;;;;;5045476;28;20074;-76
2022/09/25 09:43:18;;;;;;;3.00;1.35;;;19.60;74.30;;;;;;5029502;28;20036;-77
2022/09/25 09:45:51;;;;;;;6.65;1.70;;;19.60;74.10;;;;;;5045046;28;20549;-73
2022/09/25 09:48:38;;;;;;;6.22;1.63;;;19.70;74.00;;;;;;5045351;28;20116;-74
2022/09/25 09:51:20;;;;;;;6.32;1.48;;;19.70;74.00;;;;;;5051128;28;20529;-76
2022/09/25 09:54:13;;;;;;;7.03;2.35;;;19.80;73.80;;;;;;5045508;28;20456;-78
2022/09/25 09:56:43;;;;;;;3.47;1.27;;;19.90;73.30;;;;;;5047680;28;20383;-79
2022/09/25 09:59:21;;;;;;;5.18;1.33;;;19.90;72.40;;;;;;5048083;28;20092;-74
2022/09/25 10:02:02;;;;;;;3.33;2.13;;;19.90;72.10;;;;;;5046960;28;20649;-75
2022/09/25 10:04:34;;;;;;;9.02;2.38;;;20.00;72.10;;;;;;5046178;28;20017;-77
2022/09/25 10:07:17;;;;;;;7.43;1.60;;;20.00;72.30;;;;;;5046727;28;20024;-77
2022/09/25 10:09:45;;;;;;;3.40;2.05;;;20.00;72.50;;;;;;5048727;28;20422;-74
2022/09/25 10:12:33;;;;;;;8.10;2.88;;;20.10;73.00;;;;;;5047487;28;20029;-77
2022/09/25 10:15:05;;;;;;;4.40;2.13;;;20.10;73.30;;;;;;5051001;28;20472;-76
2022/09/25 10:17:36;;;;;;;11.00;2.70;;;20.20;73.50;;;;;;5046260;28;20044;-76
2022/09/25 10:20:13;;;;;;;4.13;1.50;;;20.20;73.60;;;;;;5045632;28;20035;-74
2022/09/25 10:22:45;;;;;;;6.80;1.75;;;20.20;74.10;;;;;;5045376;28;20040;-74
2022/09/25 10:25:11;;;;;;;12.85;2.50;;;20.10;74.60;;;;;;5045776;28;20060;-76
2022/09/25 10:27:46;;;;;;;8.13;2.35;;;20.10;75.20;;;;;;5045998;28;20017;-73
2022/09/25 10:30:16;;;;;;;10.68;2.65;;;20.10;75.90;;;;;;5050936;28;20017;-68
2022/09/25 10:32:51;;;;;;;3.83;1.60;;;20.20;76.70;;;;;;5044337;28;20021;-69
2022/09/25 10:35:19;;;;;;;;;;;20.20;76.80;;;;;;5049596;28;20029;-72
2022/09/25 10:37:51;;;;;;;5.97;1.50;;;20.30;76.60;;;;;;5044374;28;19962;-78
2022/09/25 10:40:36;;;;;;;3.67;1.65;;;20.30;76.40;;;;;;5047633;28;20358;-70
2022/09/25 10:43:24;;;;;;;3.42;1.67;;;20.30;76.60;;;;;;5045312;28;20031;-77
2022/09/25 10:46:14;;;;;;;6.57;1.75;;;20.30;77.00;;;;;;5045777;28;20516;-72
2022/09/25 10:51:27;;;;;;;7.70;2.17;;;20.30;77.00;;;;;;5048628;28;20043;-76
2022/09/25 10:54:15;;;;;;;3.80;1.50;;;20.30;77.20;;;;;;5045855;28;20026;-75
2022/09/25 10:56:42;;;;;;;6.03;1.92;;;20.40;77.30;;;;;;5043693;28;20025;-75
2022/09/25 10:59:20;;;;;;;6.78;1.63;;;20.40;77.40;;;;;;5047163;28;20055;-76
2022/09/25 11:01:49;;;;;;;3.40;1.92;;;20.40;77.40;;;;;;5050926;28;20021;-77
2022/09/25 11:04:34;;;;;;;4.47;1.20;;;20.40;77.30;;;;;;5049853;28;20590;-74
2022/09/25 11:07:05;;;;;;;6.60;2.30;;;20.30;76.70;;;;;;5064239;28;20063;-69
2022/09/25 11:09:35;;;;;;;2.92;1.30;;;20.20;76.40;;;;;;5048106;28;20495;-71
2022/09/25 11:12:25;;;;;;;6.53;1.52;;;20.20;76.50;;;;;;5044456;28;20547;-73
2022/09/25 11:15:01;;;;;;;8.65;2.03;;;20.20;76.60;;;;;;5048491;28;20065;-78
2022/09/25 11:17:38;;;;;;;10.50;2.42;;;20.10;76.80;;;;;;5061533;28;20040;-72
2022/09/25 11:20:21;;;;;;;5.63;1.50;;;20.20;76.90;;;;;;5050656;28;20046;-72
2022/09/25 11:23:18;;;;;;;7.10;2.15;;;20.20;76.20;;;;;;5052741;28;20508;-73
2022/09/25 11:25:57;;;;;;;7.20;4.53;;;20.30;76.50;;;;;;5050483;28;20063;-76
2022/09/25 11:29:04;;;;;;;13.13;3.80;;;20.30;77.10;;;;;;5044938;28;20399;-71
2022/09/25 11:32:03;;;;;;;4.65;1.83;;;20.30;77.40;;;;;;5037020;28;20047;-68
2022/09/25 11:34:33;;;;;;;5.43;1.70;;;20.40;77.80;;;;;;5049701;28;20060;-73
2022/09/25 11:37:03;;;;;;;9.25;1.65;;;20.50;77.50;;;;;;5049633;28;20096;-73
2022/09/25 11:42:58;;;;;;;4.93;2.58;;;20.70;75.50;;;;;;5024855;28;20083;-76
2022/09/25 11:45:50;;;;;;;4.22;2.03;;;20.70;73.30;;;;;;5020520;28;22462;-76
2022/09/25 11:48:33;;;;;;;3.85;1.75;;;20.90;73.40;;;;;;5026793;28;20047;-72
2022/09/25 11:51:48;;;;;;;4.70;1.90;;;20.90;74.30;;;;;;5037156;28;20110;-75
2022/09/25 11:54:44;;;;;;;11.27;2.28;;;21.00;74.70;;;;;;5052772;28;20028;-73
2022/09/25 11:57:35;;;;;;;7.45;1.67;;;21.00;75.20;;;;;;5050247;28;20044;-75
2022/09/25 12:00:19;;;;;;;8.13;1.73;;;21.10;75.30;;;;;;5049924;28;20021;-77
2022/09/25 12:03:24;;;;;;;10.40;3.50;;;21.20;75.00;;;;;;5052388;28;20029;-74
2022/09/25 14:19:41;;;;;;;26.17;17.55;;;20.20;76.50;;;;;;5062946;28;20405;-67
2022/09/25 14:22:23;;;;;;;44.65;31.77;;;20.50;77.00;;;;;;5038400;28;20021;-74
2022/09/25 14:24:51;;;;;;;57.28;40.33;;;20.70;76.90;;;;;;5040327;28;20052;-70
2022/09/25 14:27:26;;;;;;;51.85;32.40;;;20.80;76.00;;;;;;5042264;28;20034;-77
2022/09/25 14:30:06;;;;;;;41.60;28.83;;;20.80;75.30;;;;;;5036177;28;20036;-65
2022/09/25 14:32:51;;;;;;;52.45;35.75;;;20.90;75.50;;;;;;5046413;28;20030;-69
2022/09/25 14:35:43;;;;;;;55.70;34.58;;;20.90;75.10;;;;;;5038115;28;20484;-65
2022/09/25 14:38:37;;;;;;;35.53;23.13;;;21.00;74.40;;;;;;5039389;28;20033;-74
2022/09/25 14:41:34;;;;;;;23.38;15.35;;;21.00;74.30;;;;;;5040611;28;20026;-66
2022/09/25 14:44:20;;;;;;;35.67;24.17;;;21.00;74.30;;;;;;5037069;28;20029;-71
2022/09/25 14:46:52;;;;;;;77.07;52.63;;;21.00;74.30;;;;;;5044999;28;20037;-77
2022/09/25 14:49:26;;;;;;;97.18;74.90;;;21.00;74.40;;;;;;5019248;28;20517;-76
2022/09/25 14:52:02;;;;;;;148.15;116.57;;;21.00;74.20;;;;;;5046437;28;20021;-88
2022/09/25 14:54:35;;;;;;;132.40;101.05;;;20.90;73.80;;;;;;5030180;28;20534;-68
2022/09/25 14:57:04;;;;;;;115.75;88.32;;;20.90;73.70;;;;;;5040934;28;20049;-67
2022/09/25 14:59:44;;;;;;;33.15;25.10;;;20.90;73.70;;;;;;5044445;28;20380;-73
2022/09/25 15:02:37;;;;;;;17.42;13.07;;;20.80;73.40;;;;;;5041856;28;20415;-78
2022/09/25 15:05:22;;;;;;;11.10;7.63;;;20.80;73.10;;;;;;5044438;28;20018;-71
2022/09/25 15:07:49;;;;;;;10.23;4.05;;;20.70;72.90;;;;;;5040393;28;20062;-79
2022/09/25 15:10:32;;;;;;;7.53;3.38;;;20.70;73.10;;;;;;5049848;28;20044;-77
2022/09/25 15:13:16;;;;;;;11.07;2.45;;;20.70;73.40;;;;;;5042386;28;20021;-72
2022/09/25 15:18:42;;;;;;;13.32;4.53;;;20.60;73.80;;;;;;5032010;28;20081;-80
2022/09/25 15:21:16;;;;;;;9.40;3.83;;;20.60;74.00;;;;;;5029064;28;20013;-73
2022/09/25 15:23:43;;;;;;;8.05;2.90;;;20.60;74.00;;;;;;5023510;28;20547;-75
2022/09/25 15:26:16;;;;;;;10.95;2.00;;;20.50;74.00;;;;;;5025379;28;20040;-77
2022/09/25 15:28:43;;;;;;;7.30;2.97;;;20.50;74.30;;;;;;5026164;28;20033;-71
2022/09/25 15:31:10;;;;;;;6.45;1.83;;;20.50;74.30;;;;;;5028981;28;20025;-76
2022/09/25 15:33:38;;;;;;;10.25;2.45;;;20.50;74.20;;;;;;5022042;28;20018;-79
2022/09/25 15:36:22;;;;;;;5.43;2.67;;;20.50;74.10;;;;;;5029016;28;20484;-83
2022/09/25 15:38:59;;;;;;;20.60;5.18;;;20.50;74.40;;;;;;5027423;28;20053;-70
2022/09/25 15:41:26;;;;;;;10.05;3.65;;;20.50;75.50;;;;;;5031755;28;20515;-76
2022/09/25 15:44:23;;;;;;;11.68;3.97;;;20.40;76.10;;;;;;5021671;28;20029;-69
2022/09/25 15:46:50;;;;;;;7.95;2.30;;;20.40;76.10;;;;;;5025979;28;20040;-73
2022/09/25 15:49:24;;;;;;;13.63;3.15;;;20.40;76.30;;;;;;5029075;28;20365;-70
2022/09/25 15:51:59;;;;;;;9.80;3.10;;;20.30;76.30;;;;;;5020777;28;20078;-72
2022/09/25 15:54:41;;;;;;;10.48;2.03;;;20.30;76.50;;;;;;5026007;28;20556;-70
2022/09/25 15:57:13;;;;;;;7.38;3.38;;;20.20;76.60;;;;;;5025438;28;20029;-71
2022/09/25 16:05:32;;;;;;;4.72;2.90;;;20.20;77.40;;;;;;5022465;28;20598;-76
2022/09/25 16:08:16;;;;;;;9.10;3.03;;;20.20;77.60;;;;;;5027235;28;20099;-73
2022/09/25 16:10:45;;;;;;;5.82;3.00;;;20.20;77.50;;;;;;5025051;28;20030;-71
2022/09/25 16:13:23;;;;;;;18.60;2.75;;;20.20;77.90;;;;;;5028400;28;20105;-72
2022/09/25 16:15:52;;;;;;;6.32;1.85;;;20.20;78.00;;;;;;5011829;28;20026;-73
2022/09/25 16:18:34;;;;;;;7.07;2.30;;;20.10;78.20;;;;;;5030152;28;20045;-72
2022/09/25 16:21:21;;;;;;;13.55;5.80;;;20.10;78.10;;;;;;5032498;28;20112;-84
2022/09/25 16:24:15;;;;;;;13.70;4.20;;;20.10;78.60;;;;;;5026908;28;20018;-78
2022/09/25 16:26:43;;;;;;;7.28;4.55;;;20.10;77.50;;;;;;5031013;28;20553;-75
2022/09/25 16:29:17;;;;;;;10.30;5.00;;;20.00;77.60;;;;;;5020420;28;20017;-73
2022/09/25 16:31:45;;;;;;;15.83;6.73;;;19.90;78.10;;;;;;5026213;28;20029;-77
2022/09/25 16:34:25;;;;;;;13.43;4.43;;;19.80;78.70;;;;;;5010751;28;20275;-72
2022/09/25 16:36:57;;;;;;;7.53;2.50;;;19.70;79.20;;;;;;5029864;28;20104;-74
2022/09/25 16:39:33;;;;;;;10.57;4.78;;;19.60;79.60;;;;;;5025033;28;20025;-73
2022/09/25 16:42:21;;;;;;;14.32;3.50;;;19.50;80.10;;;;;;5027205;28;20030;-80
2022/09/25 16:44:50;;;;;;;11.98;3.30;;;19.40;80.20;;;;;;5018879;28;20131;-76
2022/09/25 16:47:22;;;;;;;40.47;36.55;;;19.30;80.50;;;;;;5024902;28;20029;-78
2022/09/25 16:49:50;;;;;;;51.00;44.53;;;19.20;80.80;;;;;;5025742;28;20032;-79
2022/09/25 16:52:21;;;;;;;18.92;10.05;;;19.10;81.50;;;;;;5025629;28;20483;-77
2022/09/25 16:54:53;;;;;;;24.15;11.52;;;19.10;82.40;;;;;;5027755;28;20017;-84
2022/09/25 16:57:24;;;;;;;14.57;10.35;;;19.00;82.10;;;;;;5020941;28;20018;-72
2022/09/25 16:59:51;;;;;;;11.98;6.85;;;19.10;82.70;;;;;;5031668;28;20369;-70
2022/09/25 17:02:40;;;;;;;12.38;7.03;;;19.20;82.90;;;;;;5023514;28;20385;-78
2022/09/25 17:05:16;;;;;;;8.13;4.90;;;19.30;82.70;;;;;;5023520;28;20022;-80
2022/09/25 17:07:47;;;;;;;15.45;7.70;;;19.30;82.40;;;;;;5026560;28;20060;-88
2022/09/25 17:10:20;;;;;;;9.90;4.93;;;19.40;81.80;;;;;;5025870;28;20029;-69
2022/09/25 17:12:49;;;;;;;13.43;5.97;;;19.50;81.60;;;;;;5031065;28;20091;-75
2022/09/25 17:15:23;;;;;;;16.35;6.78;;;19.50;81.40;;;;;;5027250;28;20021;-80
2022/09/25 17:17:56;;;;;;;19.98;7.13;;;19.50;81.10;;;;;;5023249;28;20037;-72
2022/09/25 17:20:47;;;;;;;13.85;6.60;;;19.50;80.90;;;;;;5023388;28;20072;-75
2022/09/25 17:23:17;;;;;;;16.50;7.10;;;19.50;81.10;;;;;;5004620;28;20033;-68
2022/09/25 17:25:54;;;;;;;13.73;7.30;;;19.50;81.00;;;;;;5025851;28;20076;-67
2022/09/25 17:28:21;;;;;;;14.63;7.55;;;19.50;80.80;;;;;;5001454;28;20109;-81
2022/09/25 17:30:53;;;;;;;22.30;10.43;;;19.50;80.80;;;;;;5018454;28;20025;-74
2022/09/25 17:33:21;;;;;;;21.77;10.50;;;19.50;80.80;;;;;;5023046;28;20030;-69
2022/09/25 17:36:16;;;;;;;35.35;10.15;;;19.50;80.60;;;;;;5023730;28;20009;-74
2022/09/25 17:38:43;;;;;;;14.20;6.95;;;19.60;80.70;;;;;;4998788;28;20028;-71
2022/09/25 17:41:27;;;;;;;11.48;5.57;;;19.50;80.60;;;;;;5021150;28;20033;-69
2022/09/25 17:43:53;;;;;;;14.02;6.97;;;19.50;80.60;;;;;;5023985;28;20032;-75
2022/09/25 17:46:20;;;;;;;13.70;7.70;;;19.50;80.60;;;;;;5019976;28;20069;-72
2022/09/25 17:48:46;;;;;;;10.35;5.43;;;19.50;80.60;;;;;;5018297;28;20109;-76
2022/09/25 17:51:20;;;;;;;9.20;4.95;;;19.50;81.00;;;;;;5005632;28;20029;-72
2022/09/25 17:53:54;;;;;;;12.38;4.50;;;19.50;80.60;;;;;;5023396;28;20108;-81
2022/09/25 17:56:29;;;;;;;10.98;3.72;;;19.50;80.70;;;;;;5016636;28;20032;-79
2022/09/25 17:58:56;;;;;;;7.13;4.30;;;19.50;80.90;;;;;;5019642;28;20065;-77
2022/09/25 18:01:26;;;;;;;12.88;5.82;;;19.50;80.90;;;;;;5021583;28;20017;-71
2022/09/25 18:03:55;;;;;;;13.95;4.22;;;19.50;80.90;;;;;;5017165;28;20068;-70
2022/09/25 18:06:23;;;;;;;7.95;3.45;;;19.50;80.90;;;;;;5027024;28;20017;-72
2022/09/25 18:09:03;;;;;;;7.93;3.78;;;19.50;81.00;;;;;;5015881;28;20014;-75
2022/09/25 18:11:29;;;;;;;15.32;7.45;;;19.50;81.00;;;;;;5025970;28;20044;-68
2022/09/25 18:13:59;;;;;;;13.77;6.38;;;19.50;80.90;;;;;;5018864;28;20029;-79